sensor_id;sensor_type;location;lat;lon;timestamp;pressure;altitude;pressure_sealevel;temperature;humidity
57290;BME280;43523;53.022;-1.178;2024-03-29T00:00:50;97140.92;;;2.56;100.00
57290;BME280;43523;53.022;-1.178;2024-03-29T00:01:52;97143.98;;;2.22;100.00
57290;BME280;43523;53.022;-1.178;2024-03-29T00:02:54;97151.42;;;2.73;100.00
57290;BME280;43523;53.022;-1.178;2024-03-29T00:03:57;97151.52;;;2.53;100.00
57290;BME280;43523;53.022;-1.178;2024-03-29T00:05:00;97157.53;;;2.47;100.00
57290;BME280;43523;53.022;-1.178;2024-03-29T00:06:02;97156.20;;;2.42;100.00
57290;BME280;43523;53.022;-1.178;2024-03-29T00:07:04;97161.42;;;2.86;100.00
57290;BME280;43523;53.022;-1.178;2024-03-29T00:08:07;97165.69;;;2.25;100.00
57290;BME280;43523;53.022;-1.178;2024-03-29T00:09:10;97164.82;;;2.30;100.00
57290;BME280;43523;53.022;-1.178;2024-03-29T00:10:14;97165.87;;;2.43;100.00
57290;BME280;43523;53.022;-1.178;2024-03-29T00:11:16;97166.74;;;2.27;100.00
57290;BME280;43523;53.022;-1.178;2024-03-29T00:12:19;97176.00;;;2.85;100.00
57290;BME280;43523;53.022;-1.178;2024-03-29T00:13:21;97171.92;;;2.16;100.00
57290;BME280;43523;53.022;-1.178;2024-03-29T00:14:24;97174.87;;;2.46;100.00
57290;BME280;43523;53.022;-1.178;2024-03-29T00:15:26;97179.77;;;2.18;100.00
57290;BME280;43523;53.022;-1.178;2024-03-29T00:16:28;97186.38;;;2.15;100.00
57290;BME280;43523;53.022;-1.178;2024-03-29T00:17:31;97183.91;;;2.15;100.00
57290;BME280;43523;53.022;-1.178;2024-03-29T00:18:33;97191.70;;;2.61;100.00
57290;BME280;43523;53.022;-1.178;2024-03-29T00:19:36;97192.90;;;1.95;100.00
57290;BME280;43523;53.022;-1.178;2024-03-29T00:20:39;97193.18;;;2.05;100.00
57290;BME280;43523;53.022;-1.178;2024-03-29T00:21:41;97195.82;;;2.07;100.00
57290;BME280;43523;53.022;-1.178;2024-03-29T00:22:44;97198.25;;;2.41;100.00
57290;BME280;43523;53.022;-1.178;2024-03-29T00:23:47;97201.27;;;2.05;100.00
57290;BME280;43523;53.022;-1.178;2024-03-29T00:24:49;97208.90;;;2.06;100.00
57290;BME280;43523;53.022;-1.178;2024-03-29T00:25:52;97220.45;;;2.15;100.00
57290;BME280;43523;53.022;-1.178;2024-03-29T00:26:54;97210.35;;;2.66;100.00
57290;BME280;43523;53.022;-1.178;2024-03-29T00:27:57;97212.48;;;1.75;100.00
57290;BME280;43523;53.022;-1.178;2024-03-29T00:28:59;97216.47;;;2.24;100.00
57290;BME280;43523;53.022;-1.178;2024-03-29T00:30:02;97212.38;;;2.49;100.00
57290;BME280;43523;53.022;-1.178;2024-03-29T00:31:04;97210.35;;;2.33;100.00
57290;BME280;43523;53.022;-1.178;2024-03-29T00:32:07;97219.23;;;2.30;100.00
57290;BME280;43523;53.022;-1.178;2024-03-29T00:33:10;97220.81;;;2.38;100.00
57290;BME280;43523;53.022;-1.178;2024-03-29T00:34:12;97222.72;;;1.96;100.00
57290;BME280;43523;53.022;-1.178;2024-03-29T00:35:14;97222.49;;;2.09;100.00
57290;BME280;43523;53.022;-1.178;2024-03-29T00:36:17;97225.71;;;1.78;100.00
57290;BME280;43523;53.022;-1.178;2024-03-29T00:37:19;97228.72;;;1.87;100.00
57290;BME280;43523;53.022;-1.178;2024-03-29T00:38:22;97237.14;;;2.27;100.00
57290;BME280;43523;53.022;-1.178;2024-03-29T00:39:24;97245.68;;;1.73;100.00
57290;BME280;43523;53.022;-1.178;2024-03-29T00:40:26;97250.51;;;2.26;100.00
57290;BME280;43523;53.022;-1.178;2024-03-29T00:41:29;97248.66;;;1.73;100.00
57290;BME280;43523;53.022;-1.178;2024-03-29T00:42:31;97249.85;;;2.29;100.00
57290;BME280;43523;53.022;-1.178;2024-03-29T00:43:34;97259.09;;;2.03;100.00
57290;BME280;43523;53.022;-1.178;2024-03-29T00:44:36;97255.11;;;2.26;100.00
57290;BME280;43523;53.022;-1.178;2024-03-29T00:45:40;97256.64;;;1.81;100.00
57290;BME280;43523;53.022;-1.178;2024-03-29T00:46:43;97255.74;;;1.60;100.00
57290;BME280;43523;53.022;-1.178;2024-03-29T00:47:46;97255.75;;;2.09;100.00
57290;BME280;43523;53.022;-1.178;2024-03-29T00:48:48;97257.27;;;1.82;100.00
57290;BME280;43523;53.022;-1.178;2024-03-29T00:49:51;97266.65;;;1.74;100.00
57290;BME280;43523;53.022;-1.178;2024-03-29T00:50:53;97274.83;;;1.99;100.00
57290;BME280;43523;53.022;-1.178;2024-03-29T00:51:56;97263.27;;;1.68;100.00
57290;BME280;43523;53.022;-1.178;2024-03-29T00:52:58;97264.60;;;2.29;100.00
57290;BME280;43523;53.022;-1.178;2024-03-29T00:54:01;97264.80;;;1.60;100.00
57290;BME280;43523;53.022;-1.178;2024-03-29T00:55:04;97270.10;;;2.08;100.00
57290;BME280;43523;53.022;-1.178;2024-03-29T00:56:06;97271.14;;;1.70;100.00
57290;BME280;43523;53.022;-1.178;2024-03-29T00:57:09;97275.60;;;2.21;100.00
57290;BME280;43523;53.022;-1.178;2024-03-29T00:58:11;97277.26;;;1.65;100.00
57290;BME280;43523;53.022;-1.178;2024-03-29T00:59:14;97279.05;;;1.88;100.00
57290;BME280;43523;53.022;-1.178;2024-03-29T01:02:16;97282.54;;;1.90;100.00
57290;BME280;43523;53.022;-1.178;2024-03-29T01:03:20;97293.62;;;1.51;100.00
57290;BME280;43523;53.022;-1.178;2024-03-29T01:04:25;97291.19;;;1.52;100.00
57290;BME280;43523;53.022;-1.178;2024-03-29T01:05:29;97297.86;;;1.98;100.00
57290;BME280;43523;53.022;-1.178;2024-03-29T01:06:32;97297.50;;;1.48;100.00
57290;BME280;43523;53.022;-1.178;2024-03-29T01:07:34;97297.77;;;1.70;100.00
57290;BME280;43523;53.022;-1.178;2024-03-29T01:08:37;97308.83;;;1.33;100.00
57290;BME280;43523;53.022;-1.178;2024-03-29T01:09:39;97295.07;;;1.45;100.00
57290;BME280;43523;53.022;-1.178;2024-03-29T01:10:42;97291.13;;;1.77;100.00
57290;BME280;43523;53.022;-1.178;2024-03-29T01:11:45;97310.97;;;1.45;100.00
57290;BME280;43523;53.022;-1.178;2024-03-29T01:12:47;97293.91;;;2.09;100.00
57290;BME280;43523;53.022;-1.178;2024-03-29T01:13:51;97291.27;;;1.50;100.00
57290;BME280;43523;53.022;-1.178;2024-03-29T01:14:53;97298.21;;;1.79;100.00
57290;BME280;43523;53.022;-1.178;2024-03-29T01:15:56;97302.40;;;1.55;100.00
57290;BME280;43523;53.022;-1.178;2024-03-29T01:16:58;97305.73;;;1.47;100.00
57290;BME280;43523;53.022;-1.178;2024-03-29T01:18:01;97300.12;;;1.48;100.00
57290;BME280;43523;53.022;-1.178;2024-03-29T01:19:03;97303.45;;;1.69;100.00
57290;BME280;43523;53.022;-1.178;2024-03-29T01:20:06;97300.52;;;1.64;100.00
57290;BME280;43523;53.022;-1.178;2024-03-29T01:21:09;97307.54;;;1.72;100.00
57290;BME280;43523;53.022;-1.178;2024-03-29T01:22:11;97312.76;;;2.06;100.00
57290;BME280;43523;53.022;-1.178;2024-03-29T01:23:14;97315.97;;;1.60;100.00
57290;BME280;43523;53.022;-1.178;2024-03-29T01:24:18;97311.82;;;1.54;100.00
57290;BME280;43523;53.022;-1.178;2024-03-29T01:25:25;97313.04;;;1.61;100.00
57290;BME280;43523;53.022;-1.178;2024-03-29T01:26:27;97317.85;;;1.63;100.00
57290;BME280;43523;53.022;-1.178;2024-03-29T01:27:30;97316.86;;;1.64;100.00
57290;BME280;43523;53.022;-1.178;2024-03-29T01:28:34;97338.85;;;1.50;100.00
57290;BME280;43523;53.022;-1.178;2024-03-29T01:29:36;97321.77;;;1.71;100.00
57290;BME280;43523;53.022;-1.178;2024-03-29T01:30:37;97327.24;;;1.35;100.00
57290;BME280;43523;53.022;-1.178;2024-03-29T01:31:40;97329.91;;;1.29;100.00
57290;BME280;43523;53.022;-1.178;2024-03-29T01:32:43;97332.29;;;1.45;100.00
57290;BME280;43523;53.022;-1.178;2024-03-29T01:33:46;97335.82;;;1.27;100.00
57290;BME280;43523;53.022;-1.178;2024-03-29T01:34:48;97331.27;;;1.36;100.00
57290;BME280;43523;53.022;-1.178;2024-03-29T01:35:51;97332.52;;;1.05;100.00
57290;BME280;43523;53.022;-1.178;2024-03-29T01:36:54;97332.96;;;1.05;100.00
57290;BME280;43523;53.022;-1.178;2024-03-29T01:37:56;97337.46;;;1.08;100.00
57290;BME280;43523;53.022;-1.178;2024-03-29T01:38:59;97344.99;;;1.12;100.00
57290;BME280;43523;53.022;-1.178;2024-03-29T01:40:01;97339.44;;;1.11;100.00
57290;BME280;43523;53.022;-1.178;2024-03-29T01:41:03;97342.44;;;1.78;100.00
57290;BME280;43523;53.022;-1.178;2024-03-29T01:42:06;97342.22;;;1.20;100.00
57290;BME280;43523;53.022;-1.178;2024-03-29T01:43:08;97348.34;;;1.35;100.00
57290;BME280;43523;53.022;-1.178;2024-03-29T01:44:11;97343.23;;;1.06;100.00
57290;BME280;43523;53.022;-1.178;2024-03-29T01:45:13;97346.72;;;1.19;100.00
57290;BME280;43523;53.022;-1.178;2024-03-29T01:46:16;97346.44;;;1.19;100.00
57290;BME280;43523;53.022;-1.178;2024-03-29T01:47:21;97349.11;;;1.20;100.00
57290;BME280;43523;53.022;-1.178;2024-03-29T01:48:25;97345.44;;;1.49;100.00
57290;BME280;43523;53.022;-1.178;2024-03-29T01:49:30;97341.95;;;1.19;100.00
57290;BME280;43523;53.022;-1.178;2024-03-29T01:50:33;97346.81;;;1.43;100.00
57290;BME280;43523;53.022;-1.178;2024-03-29T01:51:37;97345.56;;;0.98;100.00
57290;BME280;43523;53.022;-1.178;2024-03-29T01:52:40;97344.38;;;1.39;100.00
57290;BME280;43523;53.022;-1.178;2024-03-29T01:53:43;97344.99;;;0.96;100.00
57290;BME280;43523;53.022;-1.178;2024-03-29T01:54:47;97348.17;;;1.26;100.00
57290;BME280;43523;53.022;-1.178;2024-03-29T01:55:51;97354.49;;;1.16;100.00
57290;BME280;43523;53.022;-1.178;2024-03-29T01:56:55;97349.24;;;1.24;100.00
57290;BME280;43523;53.022;-1.178;2024-03-29T01:57:58;97356.62;;;0.86;100.00
57290;BME280;43523;53.022;-1.178;2024-03-29T01:59:03;97354.42;;;1.31;100.00
57290;BME280;43523;53.022;-1.178;2024-03-29T02:00:08;97355.74;;;1.00;100.00
57290;BME280;43523;53.022;-1.178;2024-03-29T02:01:12;97354.33;;;0.93;100.00
57290;BME280;43523;53.022;-1.178;2024-03-29T02:02:15;97355.68;;;0.88;100.00
57290;BME280;43523;53.022;-1.178;2024-03-29T02:03:18;97361.41;;;1.45;100.00
57290;BME280;43523;53.022;-1.178;2024-03-29T02:04:21;97364.08;;;0.95;100.00
57290;BME280;43523;53.022;-1.178;2024-03-29T02:05:24;97368.18;;;1.10;100.00
57290;BME280;43523;53.022;-1.178;2024-03-29T02:06:27;97367.63;;;1.20;100.00
57290;BME280;43523;53.022;-1.178;2024-03-29T02:07:29;97365.78;;;0.91;100.00
57290;BME280;43523;53.022;-1.178;2024-03-29T02:08:34;97367.59;;;1.10;100.00
57290;BME280;43523;53.022;-1.178;2024-03-29T02:09:37;97365.21;;;1.04;100.00
57290;BME280;43523;53.022;-1.178;2024-03-29T02:10:39;97368.98;;;1.33;100.00
57290;BME280;43523;53.022;-1.178;2024-03-29T02:11:47;97372.84;;;1.02;100.00
57290;BME280;43523;53.022;-1.178;2024-03-29T02:12:49;97370.24;;;1.32;100.00
57290;BME280;43523;53.022;-1.178;2024-03-29T02:13:53;97374.95;;;0.97;100.00
57290;BME280;43523;53.022;-1.178;2024-03-29T02:14:55;97373.26;;;0.88;100.00
57290;BME280;43523;53.022;-1.178;2024-03-29T02:15:58;97375.97;;;1.06;100.00
57290;BME280;43523;53.022;-1.178;2024-03-29T02:17:00;97377.91;;;1.06;100.00
57290;BME280;43523;53.022;-1.178;2024-03-29T02:18:03;97376.17;;;1.00;100.00
57290;BME280;43523;53.022;-1.178;2024-03-29T02:19:05;97381.87;;;0.75;100.00
57290;BME280;43523;53.022;-1.178;2024-03-29T02:20:11;97377.87;;;1.12;100.00
57290;BME280;43523;53.022;-1.178;2024-03-29T02:21:13;97379.76;;;0.92;100.00
57290;BME280;43523;53.022;-1.178;2024-03-29T02:22:17;97379.83;;;0.64;100.00
57290;BME280;43523;53.022;-1.178;2024-03-29T02:23:27;97379.51;;;0.90;100.00
57290;BME280;43523;53.022;-1.178;2024-03-29T02:24:29;97383.91;;;1.23;100.00
57290;BME280;43523;53.022;-1.178;2024-03-29T02:25:32;97381.93;;;1.07;100.00
57290;BME280;43523;53.022;-1.178;2024-03-29T02:26:34;97387.76;;;1.27;100.00
57290;BME280;43523;53.022;-1.178;2024-03-29T02:27:37;97387.83;;;0.86;100.00
57290;BME280;43523;53.022;-1.178;2024-03-29T02:28:40;97387.77;;;0.83;100.00
57290;BME280;43523;53.022;-1.178;2024-03-29T02:29:47;97386.08;;;0.87;100.00
57290;BME280;43523;53.022;-1.178;2024-03-29T02:30:51;97394.06;;;0.90;100.00
57290;BME280;43523;53.022;-1.178;2024-03-29T02:31:53;97387.38;;;1.61;100.00
57290;BME280;43523;53.022;-1.178;2024-03-29T02:32:56;97387.58;;;0.70;100.00
57290;BME280;43523;53.022;-1.178;2024-03-29T02:34:03;97387.69;;;0.63;100.00
57290;BME280;43523;53.022;-1.178;2024-03-29T02:35:07;97391.98;;;0.65;100.00
57290;BME280;43523;53.022;-1.178;2024-03-29T02:36:09;97386.94;;;1.06;100.00
57290;BME280;43523;53.022;-1.178;2024-03-29T02:37:12;97387.08;;;0.68;100.00
57290;BME280;43523;53.022;-1.178;2024-03-29T02:38:14;97385.84;;;1.06;100.00
57290;BME280;43523;53.022;-1.178;2024-03-29T02:39:17;97390.87;;;0.78;100.00
57290;BME280;43523;53.022;-1.178;2024-03-29T02:40:21;97391.95;;;0.94;100.00
57290;BME280;43523;53.022;-1.178;2024-03-29T02:41:24;97392.13;;;1.00;100.00
57290;BME280;43523;53.022;-1.178;2024-03-29T02:42:26;97396.34;;;1.09;100.00
57290;BME280;43523;53.022;-1.178;2024-03-29T02:43:28;97400.13;;;0.63;100.00
57290;BME280;43523;53.022;-1.178;2024-03-29T02:44:31;97402.01;;;0.56;100.00
57290;BME280;43523;53.022;-1.178;2024-03-29T02:45:33;97399.76;;;0.67;100.00
57290;BME280;43523;53.022;-1.178;2024-03-29T02:46:36;97400.55;;;0.99;100.00
57290;BME280;43523;53.022;-1.178;2024-03-29T02:47:39;97400.90;;;0.82;100.00
57290;BME280;43523;53.022;-1.178;2024-03-29T02:48:41;97398.31;;;0.96;100.00
57290;BME280;43523;53.022;-1.178;2024-03-29T02:49:44;97400.87;;;0.80;100.00
57290;BME280;43523;53.022;-1.178;2024-03-29T02:50:47;97406.36;;;0.85;100.00
57290;BME280;43523;53.022;-1.178;2024-03-29T02:51:49;97407.79;;;0.96;100.00
57290;BME280;43523;53.022;-1.178;2024-03-29T02:52:52;97409.21;;;0.68;100.00
57290;BME280;43523;53.022;-1.178;2024-03-29T02:53:54;97405.19;;;0.53;100.00
57290;BME280;43523;53.022;-1.178;2024-03-29T02:54:57;97402.61;;;0.85;100.00
57290;BME280;43523;53.022;-1.178;2024-03-29T02:55:59;97408.85;;;0.38;100.00
57290;BME280;43523;53.022;-1.178;2024-03-29T02:57:02;97409.63;;;0.75;100.00
57290;BME280;43523;53.022;-1.178;2024-03-29T02:58:05;97408.81;;;0.51;100.00
57290;BME280;43523;53.022;-1.178;2024-03-29T02:59:07;97409.41;;;0.87;100.00
57290;BME280;43523;53.022;-1.178;2024-03-29T03:00:12;97409.68;;;0.47;100.00
57290;BME280;43523;53.022;-1.178;2024-03-29T03:01:15;97409.24;;;0.41;100.00
57290;BME280;43523;53.022;-1.178;2024-03-29T03:02:17;97411.31;;;0.75;100.00
57290;BME280;43523;53.022;-1.178;2024-03-29T03:03:26;97408.68;;;0.52;100.00
57290;BME280;43523;53.022;-1.178;2024-03-29T03:04:29;97407.63;;;0.52;100.00
57290;BME280;43523;53.022;-1.178;2024-03-29T03:05:32;97411.71;;;0.49;100.00
57290;BME280;43523;53.022;-1.178;2024-03-29T03:06:35;97413.98;;;0.52;100.00
57290;BME280;43523;53.022;-1.178;2024-03-29T03:07:37;97408.75;;;0.58;100.00
57290;BME280;43523;53.022;-1.178;2024-03-29T03:08:39;97406.55;;;0.48;100.00
57290;BME280;43523;53.022;-1.178;2024-03-29T03:09:43;97407.43;;;0.83;100.00
57290;BME280;43523;53.022;-1.178;2024-03-29T03:10:46;97409.18;;;0.36;100.00
57290;BME280;43523;53.022;-1.178;2024-03-29T03:11:48;97411.91;;;0.56;100.00
57290;BME280;43523;53.022;-1.178;2024-03-29T03:12:51;97406.58;;;0.61;100.00
57290;BME280;43523;53.022;-1.178;2024-03-29T03:13:53;97408.91;;;0.41;100.00
57290;BME280;43523;53.022;-1.178;2024-03-29T03:14:56;97410.89;;;0.87;100.00
57290;BME280;43523;53.022;-1.178;2024-03-29T03:15:58;97408.46;;;0.35;100.00
57290;BME280;43523;53.022;-1.178;2024-03-29T03:17:01;97407.55;;;0.48;100.00
57290;BME280;43523;53.022;-1.178;2024-03-29T03:18:03;97403.46;;;0.33;100.00
57290;BME280;43523;53.022;-1.178;2024-03-29T03:19:06;97401.99;;;0.57;100.00
57290;BME280;43523;53.022;-1.178;2024-03-29T03:20:09;97404.84;;;0.50;100.00
57290;BME280;43523;53.022;-1.178;2024-03-29T03:21:12;97405.60;;;0.12;100.00
57290;BME280;43523;53.022;-1.178;2024-03-29T03:22:14;97403.86;;;0.30;100.00
57290;BME280;43523;53.022;-1.178;2024-03-29T03:23:17;97408.62;;;0.64;100.00
57290;BME280;43523;53.022;-1.178;2024-03-29T03:24:20;97410.34;;;0.31;100.00
57290;BME280;43523;53.022;-1.178;2024-03-29T03:25:23;97414.10;;;0.67;100.00
57290;BME280;43523;53.022;-1.178;2024-03-29T03:26:25;97419.16;;;0.45;100.00
57290;BME280;43523;53.022;-1.178;2024-03-29T03:27:28;97420.33;;;0.50;100.00
57290;BME280;43523;53.022;-1.178;2024-03-29T03:28:30;97417.78;;;0.43;100.00
57290;BME280;43523;53.022;-1.178;2024-03-29T03:29:33;97421.02;;;0.45;100.00
57290;BME280;43523;53.022;-1.178;2024-03-29T03:30:38;97421.73;;;0.49;100.00
57290;BME280;43523;53.022;-1.178;2024-03-29T03:31:40;97423.80;;;-0.04;100.00
57290;BME280;43523;53.022;-1.178;2024-03-29T03:32:43;97425.61;;;0.31;100.00
57290;BME280;43523;53.022;-1.178;2024-03-29T03:33:45;97424.31;;;0.57;100.00
57290;BME280;43523;53.022;-1.178;2024-03-29T03:34:48;97426.66;;;0.17;100.00
57290;BME280;43523;53.022;-1.178;2024-03-29T03:35:50;97427.08;;;0.28;100.00
57290;BME280;43523;53.022;-1.178;2024-03-29T03:36:53;97429.58;;;0.25;100.00
57290;BME280;43523;53.022;-1.178;2024-03-29T03:37:55;97432.21;;;0.24;100.00
57290;BME280;43523;53.022;-1.178;2024-03-29T03:38:58;97433.03;;;0.17;100.00
57290;BME280;43523;53.022;-1.178;2024-03-29T03:40:00;97433.45;;;0.38;100.00
57290;BME280;43523;53.022;-1.178;2024-03-29T03:41:03;97434.77;;;0.37;100.00
57290;BME280;43523;53.022;-1.178;2024-03-29T03:42:06;97431.00;;;0.56;100.00
57290;BME280;43523;53.022;-1.178;2024-03-29T03:43:08;97431.91;;;0.18;100.00
57290;BME280;43523;53.022;-1.178;2024-03-29T03:44:10;97431.48;;;0.34;100.00
57290;BME280;43523;53.022;-1.178;2024-03-29T03:45:13;97438.47;;;0.59;100.00
57290;BME280;43523;53.022;-1.178;2024-03-29T03:46:15;97439.49;;;0.30;100.00
57290;BME280;43523;53.022;-1.178;2024-03-29T03:47:18;97441.79;;;0.33;100.00
57290;BME280;43523;53.022;-1.178;2024-03-29T03:48:21;97441.63;;;0.36;100.00
57290;BME280;43523;53.022;-1.178;2024-03-29T03:49:23;97440.83;;;0.35;100.00
57290;BME280;43523;53.022;-1.178;2024-03-29T03:50:25;97439.08;;;0.40;100.00
57290;BME280;43523;53.022;-1.178;2024-03-29T03:51:28;97441.14;;;0.20;100.00
57290;BME280;43523;53.022;-1.178;2024-03-29T03:52:30;97440.94;;;0.22;100.00
57290;BME280;43523;53.022;-1.178;2024-03-29T03:53:33;97438.83;;;0.19;100.00
57290;BME280;43523;53.022;-1.178;2024-03-29T03:54:35;97444.70;;;0.24;100.00
57290;BME280;43523;53.022;-1.178;2024-03-29T03:55:38;97446.69;;;0.34;100.00
57290;BME280;43523;53.022;-1.178;2024-03-29T03:56:42;97447.55;;;0.28;100.00
57290;BME280;43523;53.022;-1.178;2024-03-29T03:57:45;97447.47;;;0.72;100.00
57290;BME280;43523;53.022;-1.178;2024-03-29T03:58:47;97450.37;;;0.62;100.00
57290;BME280;43523;53.022;-1.178;2024-03-29T03:59:50;97453.39;;;0.37;100.00
57290;BME280;43523;53.022;-1.178;2024-03-29T04:00:52;97454.08;;;0.11;100.00
57290;BME280;43523;53.022;-1.178;2024-03-29T04:01:55;97457.67;;;0.04;100.00
57290;BME280;43523;53.022;-1.178;2024-03-29T04:02:57;97458.67;;;0.09;100.00
57290;BME280;43523;53.022;-1.178;2024-03-29T04:04:00;97461.75;;;0.17;100.00
57290;BME280;43523;53.022;-1.178;2024-03-29T04:05:02;97463.35;;;0.12;100.00
57290;BME280;43523;53.022;-1.178;2024-03-29T04:06:05;97460.22;;;0.49;100.00
57290;BME280;43523;53.022;-1.178;2024-03-29T04:07:08;97464.04;;;0.66;100.00
57290;BME280;43523;53.022;-1.178;2024-03-29T04:08:11;97467.68;;;0.56;100.00
57290;BME280;43523;53.022;-1.178;2024-03-29T04:09:14;97467.47;;;0.82;100.00
57290;BME280;43523;53.022;-1.178;2024-03-29T04:10:16;97467.09;;;0.58;100.00
57290;BME280;43523;53.022;-1.178;2024-03-29T04:11:20;97466.04;;;0.69;100.00
57290;BME280;43523;53.022;-1.178;2024-03-29T04:12:22;97465.89;;;0.93;100.00
57290;BME280;43523;53.022;-1.178;2024-03-29T04:13:26;97466.32;;;0.92;100.00
57290;BME280;43523;53.022;-1.178;2024-03-29T04:14:29;97462.70;;;1.21;100.00
57290;BME280;43523;53.022;-1.178;2024-03-29T04:15:32;97467.13;;;1.19;100.00
57290;BME280;43523;53.022;-1.178;2024-03-29T04:16:34;97470.38;;;1.27;100.00
57290;BME280;43523;53.022;-1.178;2024-03-29T04:17:37;97469.92;;;1.08;100.00
57290;BME280;43523;53.022;-1.178;2024-03-29T04:18:40;97471.79;;;1.31;100.00
57290;BME280;43523;53.022;-1.178;2024-03-29T04:19:43;97476.23;;;1.30;100.00
57290;BME280;43523;53.022;-1.178;2024-03-29T04:20:45;97478.60;;;1.03;100.00
57290;BME280;43523;53.022;-1.178;2024-03-29T04:21:47;97479.33;;;1.13;100.00
57290;BME280;43523;53.022;-1.178;2024-03-29T04:22:50;97481.63;;;1.14;100.00
57290;BME280;43523;53.022;-1.178;2024-03-29T04:23:52;97479.64;;;1.15;100.00
57290;BME280;43523;53.022;-1.178;2024-03-29T04:24:55;97480.59;;;1.15;100.00
57290;BME280;43523;53.022;-1.178;2024-03-29T04:25:58;97479.26;;;1.14;100.00
57290;BME280;43523;53.022;-1.178;2024-03-29T04:27:01;97481.71;;;0.93;100.00
57290;BME280;43523;53.022;-1.178;2024-03-29T04:28:04;97482.37;;;1.42;100.00
57290;BME280;43523;53.022;-1.178;2024-03-29T04:29:07;97484.92;;;0.95;100.00
57290;BME280;43523;53.022;-1.178;2024-03-29T04:30:10;97486.07;;;0.82;100.00
57290;BME280;43523;53.022;-1.178;2024-03-29T04:31:13;97492.07;;;0.84;100.00
57290;BME280;43523;53.022;-1.178;2024-03-29T04:32:15;97492.55;;;0.65;100.00
57290;BME280;43523;53.022;-1.178;2024-03-29T04:33:18;97492.34;;;0.55;100.00
57290;BME280;43523;53.022;-1.178;2024-03-29T04:34:20;97492.73;;;1.16;100.00
57290;BME280;43523;53.022;-1.178;2024-03-29T04:35:23;97493.95;;;0.29;100.00
57290;BME280;43523;53.022;-1.178;2024-03-29T04:36:25;97495.21;;;0.54;100.00
57290;BME280;43523;53.022;-1.178;2024-03-29T04:37:28;97499.32;;;0.24;100.00
57290;BME280;43523;53.022;-1.178;2024-03-29T04:38:35;97501.47;;;0.28;100.00
57290;BME280;43523;53.022;-1.178;2024-03-29T04:39:38;97500.70;;;0.93;100.00
57290;BME280;43523;53.022;-1.178;2024-03-29T04:40:41;97500.07;;;0.91;100.00
57290;BME280;43523;53.022;-1.178;2024-03-29T04:41:43;97502.35;;;1.03;100.00
57290;BME280;43523;53.022;-1.178;2024-03-29T04:42:45;97502.97;;;0.82;100.00
57290;BME280;43523;53.022;-1.178;2024-03-29T04:43:50;97506.77;;;0.58;100.00
57290;BME280;43523;53.022;-1.178;2024-03-29T04:44:52;97507.78;;;1.12;100.00
57290;BME280;43523;53.022;-1.178;2024-03-29T04:46:03;97507.43;;;0.79;100.00
57290;BME280;43523;53.022;-1.178;2024-03-29T04:47:05;97509.51;;;1.16;100.00
57290;BME280;43523;53.022;-1.178;2024-03-29T04:48:08;97516.25;;;0.97;100.00
57290;BME280;43523;53.022;-1.178;2024-03-29T04:49:10;97517.77;;;0.64;100.00
57290;BME280;43523;53.022;-1.178;2024-03-29T04:50:13;97515.88;;;0.69;100.00
57290;BME280;43523;53.022;-1.178;2024-03-29T04:51:15;97517.03;;;0.90;100.00
57290;BME280;43523;53.022;-1.178;2024-03-29T04:52:18;97516.61;;;0.76;100.00
57290;BME280;43523;53.022;-1.178;2024-03-29T04:53:21;97519.44;;;1.14;100.00
57290;BME280;43523;53.022;-1.178;2024-03-29T04:54:24;97517.28;;;0.67;100.00
57290;BME280;43523;53.022;-1.178;2024-03-29T04:55:26;97517.91;;;0.62;100.00
57290;BME280;43523;53.022;-1.178;2024-03-29T04:56:30;97517.09;;;0.34;100.00
57290;BME280;43523;53.022;-1.178;2024-03-29T04:57:32;97516.22;;;0.71;100.00
57290;BME280;43523;53.022;-1.178;2024-03-29T04:58:34;97518.29;;;0.67;100.00
57290;BME280;43523;53.022;-1.178;2024-03-29T04:59:37;97518.54;;;1.02;100.00
57290;BME280;43523;53.022;-1.178;2024-03-29T05:00:43;97515.91;;;0.59;100.00
57290;BME280;43523;53.022;-1.178;2024-03-29T05:01:46;97515.14;;;1.01;100.00
57290;BME280;43523;53.022;-1.178;2024-03-29T05:02:48;97516.72;;;0.78;100.00
57290;BME280;43523;53.022;-1.178;2024-03-29T05:03:50;97521.31;;;0.53;100.00
57290;BME280;43523;53.022;-1.178;2024-03-29T05:04:53;97521.21;;;0.58;100.00
57290;BME280;43523;53.022;-1.178;2024-03-29T05:05:56;97519.79;;;0.74;100.00
57290;BME280;43523;53.022;-1.178;2024-03-29T05:06:59;97516.54;;;0.89;100.00
57290;BME280;43523;53.022;-1.178;2024-03-29T05:08:01;97515.16;;;1.00;100.00
57290;BME280;43523;53.022;-1.178;2024-03-29T05:09:04;97516.40;;;1.10;100.00
57290;BME280;43523;53.022;-1.178;2024-03-29T05:10:07;97520.15;;;0.67;100.00
57290;BME280;43523;53.022;-1.178;2024-03-29T05:11:09;97521.55;;;0.85;100.00
57290;BME280;43523;53.022;-1.178;2024-03-29T05:12:12;97523.05;;;0.71;100.00
57290;BME280;43523;53.022;-1.178;2024-03-29T05:13:14;97525.30;;;0.63;100.00
57290;BME280;43523;53.022;-1.178;2024-03-29T05:14:19;97526.09;;;0.74;100.00
57290;BME280;43523;53.022;-1.178;2024-03-29T05:15:22;97523.13;;;0.88;100.00
57290;BME280;43523;53.022;-1.178;2024-03-29T05:16:25;97522.52;;;0.82;100.00
57290;BME280;43523;53.022;-1.178;2024-03-29T05:17:27;97524.10;;;0.78;100.00
57290;BME280;43523;53.022;-1.178;2024-03-29T05:18:30;97522.71;;;0.85;100.00
57290;BME280;43523;53.022;-1.178;2024-03-29T05:19:32;97518.54;;;1.10;100.00
57290;BME280;43523;53.022;-1.178;2024-03-29T05:20:35;97522.59;;;0.90;100.00
57290;BME280;43523;53.022;-1.178;2024-03-29T05:21:37;97524.85;;;1.20;100.00
57290;BME280;43523;53.022;-1.178;2024-03-29T05:22:39;97525.17;;;1.00;100.00
57290;BME280;43523;53.022;-1.178;2024-03-29T05:23:43;97526.20;;;1.14;100.00
57290;BME280;43523;53.022;-1.178;2024-03-29T05:24:46;97527.82;;;0.90;100.00
57290;BME280;43523;53.022;-1.178;2024-03-29T05:25:48;97528.45;;;1.03;100.00
57290;BME280;43523;53.022;-1.178;2024-03-29T05:26:50;97529.59;;;1.10;100.00
57290;BME280;43523;53.022;-1.178;2024-03-29T05:27:53;97531.34;;;1.08;100.00
57290;BME280;43523;53.022;-1.178;2024-03-29T05:28:55;97528.91;;;0.81;100.00
57290;BME280;43523;53.022;-1.178;2024-03-29T05:29:58;97530.88;;;1.25;100.00
57290;BME280;43523;53.022;-1.178;2024-03-29T05:31:11;97533.99;;;1.16;100.00